createdAt,value
2019-06-10T00:00:23.919Z,8.80
2019-06-10T00:05:31.320Z,8.10
2019-06-10T00:10:42.259Z,9.57
2019-06-10T00:15:51.514Z,12.50
2019-06-10T00:21:01.949Z,10.23
2019-06-10T00:26:12.184Z,8.73
2019-06-10T00:31:20.612Z,8.20
2019-06-10T00:36:30.747Z,6.93
2019-06-10T00:41:37.638Z,16.37
2019-06-10T00:46:46.434Z,32.40
2019-06-10T00:51:54.874Z,17.57
2019-06-10T00:57:04.094Z,14.70
2019-06-10T01:02:14.309Z,17.47
2019-06-10T01:07:21.935Z,10.37
2019-06-10T01:12:31.611Z,10.63
2019-06-10T01:17:41.728Z,8.63
2019-06-10T01:22:51.248Z,8.53
2019-06-10T01:28:00.596Z,9.27
2019-06-10T01:33:08.696Z,8.20
2019-06-10T01:38:18.370Z,9.43
2019-06-10T01:43:27.181Z,7.57
2019-06-10T01:48:44.133Z,9.70
2019-06-10T01:53:44.763Z,8.53
2019-06-10T01:58:52.031Z,11.57
2019-06-10T02:04:00.892Z,10.37
2019-06-10T02:09:13.349Z,11.90
2019-06-10T02:14:20.352Z,8.73
2019-06-10T02:19:28.238Z,12.27
2019-06-10T02:24:36.260Z,8.83
2019-06-10T02:29:43.977Z,12.50
2019-06-10T02:35:03.520Z,10.47
2019-06-10T02:40:04.090Z,10.90
2019-06-10T02:45:17.361Z,10.83
2019-06-10T02:50:32.119Z,9.87
2019-06-10T02:55:35.111Z,10.27
2019-06-10T03:00:48.615Z,10.47
2019-06-10T03:05:53.683Z,12.03
2019-06-10T03:11:03.872Z,13.57
2019-06-10T03:16:17.795Z,11.47
2019-06-10T03:21:26.808Z,12.07
2019-06-10T03:26:44.471Z,12.33
2019-06-10T03:31:55.144Z,10.80
2019-06-10T03:37:02.460Z,12.80
2019-06-10T03:42:12.578Z,14.80
2019-06-10T03:47:21.809Z,12.97
2019-06-10T03:52:32.464Z,11.27
2019-06-10T03:57:42.105Z,15.53
2019-06-10T04:02:48.611Z,14.73
2019-06-10T04:07:55.936Z,19.97
2019-06-10T04:13:03.326Z,14.13
2019-06-10T04:18:14.246Z,15.33
2019-06-10T04:23:23.818Z,14.17
2019-06-10T04:28:33.484Z,12.43
2019-06-10T04:33:58.517Z,13.77
2019-06-10T04:39:07.951Z,16.73
2019-06-10T04:44:15.234Z,14.87
2019-06-10T04:49:28.644Z,16.03
2019-06-10T04:54:56.242Z,15.17
2019-06-10T05:00:11.291Z,18.20
2019-06-10T05:05:15.782Z,17.87
2019-06-10T05:10:26.437Z,16.20
2019-06-10T05:15:35.713Z,14.10
2019-06-10T05:21:04.753Z,14.87
2019-06-10T05:26:13.391Z,14.43
2019-06-10T05:36:28.653Z,15.20
2019-06-10T05:41:39.496Z,16.70
2019-06-10T05:47:07.093Z,14.57
2019-06-10T05:52:14.583Z,18.00
2019-06-10T05:57:25.771Z,14.17
2019-06-10T06:02:35.408Z,13.17
2019-06-10T06:07:42.648Z,15.20
2019-06-10T06:12:52.672Z,15.10
2019-06-10T06:18:09.420Z,13.70
2019-06-10T06:23:12.253Z,11.97
2019-06-10T06:28:19.829Z,16.00
2019-06-10T06:33:29.365Z,12.50
2019-06-10T06:38:38.380Z,13.37
2019-06-10T06:43:45.945Z,13.37
2019-06-10T06:48:53.476Z,13.73
2019-06-10T06:54:03.100Z,14.60
2019-06-10T06:59:09.936Z,13.83
2019-06-10T07:04:19.287Z,20.10
2019-06-10T07:09:33.076Z,12.93
2019-06-10T07:14:44.941Z,12.43
2019-06-10T07:19:52.986Z,10.70
2019-06-10T07:25:06.320Z,7.77
2019-06-10T07:30:15.207Z,15.17
2019-06-10T07:35:22.781Z,9.03
2019-06-10T07:40:33.399Z,8.53
2019-06-10T07:45:45.452Z,9.03
2019-06-10T07:50:53.215Z,11.23
2019-06-10T07:56:02.928Z,15.63
2019-06-10T08:01:27.644Z,15.33
2019-06-10T08:06:36.430Z,9.37
2019-06-10T08:11:48.289Z,8.53
2019-06-10T08:16:54.131Z,10.43
2019-06-10T08:22:03.050Z,9.63
2019-06-10T08:27:12.067Z,10.17
2019-06-10T08:32:20.243Z,7.00
2019-06-10T08:37:28.370Z,8.00
2019-06-10T08:42:36.579Z,11.23
2019-06-10T08:47:46.888Z,14.83
2019-06-10T08:53:09.138Z,9.00
2019-06-10T08:58:02.940Z,10.67
2019-06-10T09:03:12.456Z,8.93
2019-06-10T09:08:20.370Z,7.67
2019-06-10T09:13:28.073Z,10.70
2019-06-10T09:18:36.308Z,6.50
2019-06-10T09:23:49.547Z,7.73
2019-06-10T09:28:56.471Z,13.00
2019-06-10T09:34:04.435Z,9.87
2019-06-10T09:39:13.133Z,9.57
2019-06-10T09:44:22.899Z,12.70
2019-06-10T09:49:41.321Z,8.77
2019-06-10T09:54:56.284Z,8.33
2019-06-10T09:59:59.210Z,12.10
2019-06-10T10:05:10.989Z,9.17
2019-06-10T10:10:24.008Z,8.37
2019-06-10T10:15:34.598Z,9.67
2019-06-10T10:20:44.865Z,7.20
2019-06-10T10:25:56.250Z,8.80
2019-06-10T10:31:03.563Z,7.97
2019-06-10T10:36:13.253Z,8.60
2019-06-10T10:41:23.207Z,7.47
2019-06-10T10:46:32.626Z,7.17
2019-06-10T10:51:41.011Z,7.73
2019-06-10T10:56:49.621Z,10.00
2019-06-10T11:01:58.482Z,8.80
2019-06-10T11:07:05.878Z,10.50
2019-06-10T11:12:15.202Z,8.70
2019-06-10T11:17:23.470Z,8.53
2019-06-10T11:22:32.890Z,9.80
2019-06-10T11:27:39.981Z,10.67
2019-06-10T11:32:47.958Z,13.10
2019-06-10T11:37:56.691Z,8.13
2019-06-10T11:43:04.705Z,10.70
2019-06-10T11:48:12.946Z,6.90
2019-06-10T11:53:22.914Z,9.70
2019-06-10T11:58:33.338Z,10.97
2019-06-10T12:03:43.239Z,9.60
2019-06-10T12:08:54.129Z,10.90
2019-06-10T12:14:03.880Z,11.87
2019-06-10T12:19:12.546Z,12.67
2019-06-10T12:24:22.888Z,8.00
2019-06-10T12:29:30.577Z,9.97
2019-06-10T12:34:38.544Z,9.67
2019-06-10T12:40:12.879Z,10.53
2019-06-10T12:45:23.353Z,13.67
2019-06-10T12:50:31.100Z,10.67
2019-06-10T12:55:44.463Z,9.60
2019-06-10T13:00:49.525Z,14.57
2019-06-10T13:06:04.697Z,10.77
2019-06-10T13:11:12.546Z,15.47
2019-06-10T13:16:19.094Z,10.07
2019-06-10T13:21:26.633Z,11.80
2019-06-10T13:26:36.138Z,12.00
2019-06-10T13:31:44.851Z,13.70
2019-06-10T13:36:53.157Z,23.67
2019-06-10T13:42:06.871Z,11.30
2019-06-10T13:47:14.901Z,12.10
2019-06-10T13:52:24.552Z,13.00
2019-06-10T13:57:33.263Z,14.03
2019-06-10T14:02:42.967Z,12.33
2019-06-10T14:07:52.105Z,11.80
2019-06-10T14:12:59.314Z,13.57
2019-06-10T14:18:08.921Z,13.83
2019-06-10T14:23:17.659Z,15.07
2019-06-10T14:28:40.038Z,18.63
2019-06-10T14:33:35.411Z,17.07
2019-06-10T14:38:43.113Z,14.23
2019-06-10T14:43:52.964Z,14.33
2019-06-10T14:48:59.607Z,15.40
2019-06-10T14:54:09.355Z,13.43
2019-06-10T14:59:18.832Z,16.70
2019-06-10T15:04:26.924Z,11.53
2019-06-10T15:09:35.198Z,18.70
2019-06-10T15:14:43.428Z,16.13
2019-06-10T15:19:53.038Z,11.77
2019-06-10T15:25:03.220Z,11.40
2019-06-10T15:30:20.645Z,14.07
2019-06-10T15:35:24.327Z,13.37
2019-06-10T15:40:32.530Z,11.50
2019-06-10T15:45:40.020Z,15.07
2019-06-10T15:50:48.365Z,11.53
2019-06-10T15:56:13.081Z,15.10
2019-06-10T16:01:07.261Z,18.27
2019-06-10T16:06:15.986Z,14.70
2019-06-10T16:11:44.316Z,12.07
2019-06-10T16:16:52.583Z,14.10
2019-06-10T16:22:03.259Z,13.30
2019-06-10T16:27:12.628Z,12.63
2019-06-10T16:32:23.209Z,12.60
2019-06-10T16:37:32.669Z,13.40
2019-06-10T16:42:39.677Z,15.33
2019-06-10T16:47:47.078Z,18.63
2019-06-10T16:52:55.846Z,13.73
2019-06-10T16:58:08.271Z,13.97
2019-06-10T17:03:28.679Z,12.67
2019-06-10T17:08:36.655Z,13.13
2019-06-10T17:13:44.890Z,13.53
2019-06-10T17:18:52.201Z,15.13
2019-06-10T17:23:59.686Z,15.53
2019-06-10T17:29:07.826Z,17.03
2019-06-10T17:34:15.172Z,15.23
2019-06-10T17:39:34.516Z,16.37
2019-06-10T17:44:42.862Z,15.77
2019-06-10T17:49:50.275Z,18.43
2019-06-10T17:54:58.749Z,13.87
2019-06-10T18:00:14.778Z,13.97
2019-06-10T18:05:22.519Z,21.23
2019-06-10T18:10:33.198Z,22.23
2019-06-10T18:15:41.559Z,21.10
2019-06-10T18:20:49.375Z,21.10
2019-06-10T18:25:58.730Z,22.33
2019-06-10T18:31:08.124Z,17.40
2019-06-10T18:36:36.281Z,15.77
2019-06-10T18:41:46.025Z,17.57
2019-06-10T18:46:53.695Z,15.47
2019-06-10T18:52:01.886Z,17.73
2019-06-10T18:57:09.190Z,17.13
2019-06-10T19:02:17.939Z,18.27
2019-06-10T19:07:26.160Z,17.20
2019-06-10T19:12:37.031Z,25.03
2019-06-10T19:17:53.717Z,20.37
2019-06-10T19:23:02.689Z,26.07
2019-06-10T19:28:12.200Z,13.87
2019-06-10T19:33:23.633Z,10.37
2019-06-10T19:38:38.425Z,8.07
2019-06-10T19:43:46.068Z,7.27
2019-06-10T19:48:59.468Z,8.53
2019-06-10T19:54:03.521Z,10.63
2019-06-10T19:59:09.784Z,6.53
2019-06-10T20:04:18.145Z,5.53
2019-06-10T20:09:27.141Z,7.00
2019-06-10T20:14:34.904Z,5.23
2019-06-10T20:19:44.407Z,12.47
2019-06-10T20:24:52.335Z,7.03
2019-06-10T20:30:07.848Z,6.37
2019-06-10T20:35:08.179Z,7.97
2019-06-10T20:40:16.805Z,9.33
2019-06-10T20:45:24.618Z,7.33
2019-06-10T20:50:32.562Z,7.03
2019-06-10T20:55:49.056Z,14.00
2019-06-10T21:00:53.899Z,11.63
2019-06-10T21:05:59.691Z,7.87
2019-06-10T21:11:06.592Z,7.77
2019-06-10T21:16:15.664Z,8.47
2019-06-10T21:21:23.371Z,7.67
2019-06-10T21:26:32.714Z,5.87
2019-06-10T21:31:41.729Z,7.10
2019-06-10T21:36:49.632Z,11.73
2019-06-10T21:41:57.285Z,10.37
2019-06-10T21:47:05.915Z,11.17
2019-06-10T21:52:13.849Z,8.47
2019-06-10T21:57:22.081Z,14.77
2019-06-10T22:02:29.042Z,8.67
2019-06-10T22:07:35.846Z,11.27
2019-06-10T22:12:43.913Z,11.47
2019-06-10T22:17:53.338Z,9.67
2019-06-10T22:23:02.996Z,8.90
2019-06-10T22:28:10.177Z,8.40
2019-06-10T22:33:17.783Z,9.80
2019-06-10T22:38:24.608Z,17.93
2019-06-10T22:43:33.135Z,12.93
2019-06-10T23:09:26.947Z,17.50
2019-06-10T23:14:34.285Z,14.70
2019-06-10T23:19:42.898Z,19.90
2019-06-10T23:24:51.335Z,15.73
2019-06-10T23:30:00.306Z,15.97
2019-06-10T23:35:08.842Z,14.37
2019-06-10T23:40:16.949Z,18.40
2019-06-10T23:45:25.060Z,23.00
2019-06-10T23:50:33.020Z,15.20
2019-06-10T23:55:42.530Z,21.93
